aviador You're here:

FAHS Decoded Metar

HOEDSPRUIT in SOUTH AFRICA
Report Time2018-01-18 09:00:00
UTC Time2018-01-18 10:00:22
Flight Rules unknown UNKNOWN
Wind170° at 09 kt
W.Decomp.*RWY 18: 9.0 kt HW 0.6 kt RCW
RWY 27: 0.6 kt HW 9 kt LCW
W.Rank170° ranks 2
Current wind is below 170° avg. (10.1)
VisibilityN/A
Phenomena:N/A
Clouds:N/A
Expected CloudBase > 6,000 ft AGL from Temp-Dew spread
CeilingNone
Temp28°C (ISA +16)
Dew Point13°C (40% RH)
Heat Index27.7°C
AAT25.7°C
QNH1018 hPa
Density Alt3,543 ft
Elevation1,640 ft
Report Wrong Elevation
Raw Report
METAR FAHS 180900Z AUTO 17009KT //// 28/13 Q1018=

Extra information for FAHS:More info

Airport Information Weather charts Add Link Nearby Venues Social comments